Home > Products > Valid Products > TAF

000
FTUS43 KDVN 201600 AAA
TAFMLI
TAF AMD
KMLI 201613Z 2016/2112 VRB03KT P6SM VCTS FEW060CB OVC110
     FM201900 21007KT P6SM SCT050
     FM210200 17003KT P6SM VCTS FEW050CB BKN120=



000
FTUS43 KDVN 201500 AAE
TAFBRL
TAF AMD
KBRL 201557Z 2016/2112 VRB03KT 4SM RA BR VCTS SCT050CB OVC250
     FM201900 21007KT P6SM SCT050
     FM210200 17003KT P6SM VCTS FEW050CB BKN120=



000
FTUS43 KDVN 201400 AAA
TAFCID
TAF AMD
KCID 201459Z 2015/2112 23007KT P6SM -RA VCTS BKN050CB OVC150
     FM201900 19007KT P6SM SCT050
     FM210200 15003KT P6SM VCTS FEW050CB BKN120=



000
FTUS43 KDVN 201400 AAD
TAFBRL
TAF AMD
KBRL 201404Z 2014/2112 VRB03KT 6SM -RA BR VCTS FEW050CB BKN250
     FM201900 21007KT P6SM SCT050
     FM210200 17003KT P6SM VCTS FEW050CB BKN120=



000
FTUS43 KDVN 201300 AAC
TAFBRL
TAF AMD
KBRL 201359Z 2014/2112 VRB03KT 4SM -RA BR VCTS FEW050CB BKN250
     FM201500 21007KT P6SM SCT050
     FM210200 17003KT P6SM VCTS FEW050CB BKN120=



000
FTUS43 KDVN 201300 AAB
TAFBRL
TAF AMD
KBRL 201329Z 2013/2112 VRB02KT 6SM BR VCTS FEW050CB BKN250
      TEMPO 2013/2014 VRB15G27KT 1SM TSRA BR BKN015CB OVC030
     FM201500 21007KT P6SM SCT050
     FM210200 17003KT P6SM VCTS FEW050CB BKN120=



000
FTUS43 KDVN 201200 AAA
TAFBRL
TAF AMD
KBRL 201249Z 2013/2112 VRB02KT 6SM BR VCTS FEW050CB BKN250
      TEMPO 2013/2014 1SM TSRA BR BKN015CB OVC030
     FM201500 21007KT P6SM SCT050
     FM210200 17003KT P6SM VCTS FEW050CB BKN120=



000
FTUS43 KDVN 201100
TAFCID
TAF
KCID 201135Z 2012/2112 VRB02KT P6SM VCTS FEW100CB SCT250
      TEMPO 2012/2013 4SM BR
     FM201500 19007KT P6SM SCT050
     FM210200 15003KT P6SM VCTS FEW050CB BKN120=



000
FTUS43 KDVN 201100
TAFDBQ
TAF
KDBQ 201135Z 2012/2112 VRB02KT P6SM SCT250
      TEMPO 2012/2013 5SM BR
     FM201500 19007KT P6SM SCT050
     FM210200 15003KT P6SM VCTS FEW050CB BKN120=



000
FTUS43 KDVN 201100
TAFBRL
TAF
KBRL 201135Z 2012/2112 VRB02KT 6SM BR VCTS FEW050CB BKN250
      TEMPO 2012/2014 4SM -TSRA BR SCT040CB BKN070
     FM201500 21007KT P6SM SCT050
     FM210200 17003KT P6SM VCTS FEW050CB BKN120=



000
FTUS43 KDVN 201100
TAFMLI
TAF
KMLI 201135Z 2012/2112 VRB02KT P6SM SCT250
     FM201500 21007KT P6SM SCT050
     FM210200 17003KT P6SM VCTS FEW050CB BKN120=



000
FTUS43 KDVN 200900 AAA
TAFBRL
TAF AMD
KBRL 200946Z 2010/2106 VRB02KT 4SM BR FEW001
      TEMPO 2010/2013 3/4SM BR VV001
     FM201400 20007KT P6SM SCT050=



000
FTUS43 KDVN 200500
TAFMLI
TAF
KMLI 200520Z 2006/2106 VRB02KT P6SM SKC
      TEMPO 2009/2013 5SM BR
     FM201600 23006KT P6SM SCT050
     FM210100 17004KT P6SM BKN120=



000
FTUS43 KDVN 200500
TAFBRL
TAF
KBRL 200520Z 2006/2106 VRB02KT P6SM SKC
     FM200900 VRB02KT 4SM BR SKC
      TEMPO 2009/2013 2SM BR
     FM201500 20007KT P6SM SCT050=



000
FTUS43 KDVN 200500
TAFDBQ
TAF
KDBQ 200520Z 2006/2106 24003KT P6SM SKC
     FM200800 VRB02KT 4SM BR SKC
     FM201500 25008KT P6SM SCT050
     FM210100 15004KT P6SM BKN120=



000
FTUS43 KDVN 200500
TAFCID
TAF
KCID 200520Z 2006/2106 VRB02KT P6SM SKC
     FM200800 VRB02KT 4SM BR SKC
     FM201500 19008KT P6SM SCT050
     FM210100 15003KT P6SM BKN120=



000
FTUS43 KDVN 192300
TAFDBQ
TAF
KDBQ 192320Z 2000/2024 29011KT P6SM SCT050
     FM200100 30003KT P6SM SKC
     FM200800 VRB02KT 5SM BR SKC
      TEMPO 2009/2013 2SM BR
     FM201500 24008KT P6SM SCT050=



000
FTUS43 KDVN 192300
TAFCID
TAF
KCID 192320Z 2000/2024 30010KT P6SM FEW045
     FM200100 29003KT P6SM SKC
     FM200800 VRB02KT 5SM BR SKC
      TEMPO 2009/2013 2SM BR
     FM201500 22008KT P6SM SCT050=



000
FTUS43 KDVN 192300
TAFMLI
TAF
KMLI 192320Z 2000/2024 28011KT P6SM FEW050
     FM200100 27003KT P6SM SKC
     FM200900 VRB02KT 5SM BR SKC
     FM201400 25006KT P6SM SCT050=



000
FTUS43 KDVN 192300
TAFBRL
TAF
KBRL 192320Z 2000/2024 28006KT P6SM FEW050
     FM200100 VRB02KT P6SM SKC
     FM200900 VRB02KT 5SM BR SKC
      TEMPO 2009/2013 2SM BR
     FM201500 21007KT P6SM SCT050=



000
FTUS43 KDVN 191700
TAFCID
TAF
KCID 191722Z 1918/2018 29010KT P6SM SCT028
     FM200100 31005KT P6SM SKC
     FM200800 26003KT 5SM BR SKC
      TEMPO 2009/2013 2SM BR
     FM201500 22006KT P6SM SCT050=



000
FTUS43 KDVN 191700
TAFMLI
TAF
KMLI 191722Z 1918/2018 24012KT P6SM SCT025
     FM200100 28005KT P6SM SKC
     FM200900 VRB02KT 5SM BR SKC
     FM201400 23006KT P6SM SCT050=



000
FTUS43 KDVN 191700
TAFBRL
TAF
KBRL 191722Z 1918/2018 25004KT P6SM SCT030
     FM200100 29003KT P6SM SKC
     FM200900 VRB02KT 5SM BR SKC
      TEMPO 2009/2013 3SM BR
     FM201500 20006KT P6SM SCT050=



000
FTUS43 KDVN 191700
TAFDBQ
TAF
KDBQ 191722Z 1918/2018 28010KT P6SM BKN029
     FM191900 28011KT P6SM BKN035
     FM200100 30003KT P6SM SKC
     FM200800 VRB02KT 4SM BR SKC
      TEMPO 2009/2013 2SM BR
     FM201500 26005KT P6SM SCT050=



000
FTUS43 KDVN 191500 AAB
TAFMLI
TAF AMD
KMLI 191541Z 1916/2012 24011KT P6SM SCT012 BKN090
      TEMPO 1916/1917 BKN012
     FM191700 27012KT P6SM SCT010 BKN025
     FM200100 30003KT P6SM SKC
     FM200900 VRB02KT 5SM BR SKC=



000
FTUS43 KDVN 191500 AAB
TAFDBQ
TAF AMD
KDBQ 191539Z 1916/2012 27007KT P6SM SCT018 SCT025
      TEMPO 1916/1918 BKN022
     FM191800 28011KT P6SM SCT020
     FM200100 30003KT P6SM SKC
     FM200800 VRB02KT 3SM BR SKC=



000
FTUS43 KDVN 191300 AAA
TAFMLI
TAF AMD
KMLI 191328Z 1913/2012 24006KT P6SM SCT200
      TEMPO 1914/1915 6SM BR BKN010
     FM191600 28011KT P6SM FEW035 SCT250
     FM200100 30003KT P6SM SKC
     FM200900 VRB02KT 5SM BR SKC=



000
FTUS43 KDVN 191300 AAB
TAFBRL
TAF AMD
KBRL 191326Z 1913/2012 22005KT 5SM BR SCT030 OVC060
      TEMPO 1913/1915 1SM TSRA BR BKN029CB
     FM191500 24006KT 6SM BR BKN060
     FM191600 28010KT P6SM FEW035 SCT250
     FM200100 30003KT P6SM SKC
     FM200900 VRB02KT 5SM BR SKC=



000
FTUS43 KDVN 191300 AAA
TAFDBQ
TAF AMD
KDBQ 191325Z 1913/2012 25006KT 5SM BR BKN008
     FM191430 25006KT 6SM BR SCT008
     FM191600 28011KT P6SM FEW035 SCT250
     FM200100 30003KT P6SM SKC
     FM200800 VRB02KT 3SM BR SKC=



000
FTUS43 KDVN 191200 AAA
TAFBRL
TAF AMD
KBRL 191235Z 1913/2012 22005KT 5SM BR VCTS FEW080CB SCT250
      TEMPO 1913/1914 3SM -TSRA BKN035CB
     FM191400 24006KT P6SM BKN250
     FM191600 28010KT P6SM FEW035 SCT250
     FM200100 30003KT P6SM SKC
     FM200900 VRB02KT 5SM BR SKC=



000
FTUS43 KDVN 191100
TAFBRL
TAF
KBRL 191137Z 1912/2012 22005KT 6SM BR SKC
     FM191300 24006KT P6SM BKN250
     FM191600 28010KT P6SM FEW035 SCT250
     FM200100 30003KT P6SM SKC
     FM200900 VRB02KT 5SM BR SKC=



000
FTUS43 KDVN 191100
TAFDBQ
TAF
KDBQ 191137Z 1912/2012 23006KT 3SM BR OVC003
      TEMPO 1912/1913 1 1/2SM BR OVC002
     FM191400 25006KT P6SM FEW250
     FM191600 28011KT P6SM FEW035 SCT250
     FM200100 30003KT P6SM SKC
     FM200800 VRB02KT 3SM BR SKC=



000
FTUS43 KDVN 191100
TAFCID
TAF
KCID 191137Z 1912/2012 23005KT 6SM BR SCT250
      TEMPO 1912/1914 3SM BR
     FM191500 28011KT P6SM FEW035 SCT250
     FM200100 29003KT P6SM SKC
     FM200800 VRB02KT 3SM BR SKC=



000
FTUS43 KDVN 191100
TAFMLI
TAF
KMLI 191137Z 1912/2012 24006KT P6SM SKC
     FM191600 28011KT P6SM FEW035 SCT250
     FM200100 30003KT P6SM SKC
     FM200900 VRB02KT 5SM BR SKC=



000
FTUS43 KDVN 191100 AAA
TAFDBQ
TAF AMD
KDBQ 191120Z 1911/2006 22005KT 3SM BR BKN003
      TEMPO 1911/1913 1 1/2SM BR OVC002
     FM191400 24006KT P6SM FEW250
     FM191700 28011KT P6SM BKN035
     FM200000 28005KT P6SM SCT050
      AMD NOT SKED=



000
FTUS43 KDVN 190500
TAFCID
TAF
KCID 190520Z 1906/2006 21006KT 6SM BR BKN200
     FM190800 22005KT 4SM BR VCTS BKN050CB
     FM191300 24006KT P6SM BKN250
     FM191700 28011KT P6SM BKN035
     FM200000 28005KT P6SM SCT050=



000
FTUS43 KDVN 190500
TAFMLI
TAF
KMLI 190520Z 1906/2006 21004KT P6SM SCT100 BKN250
      TEMPO 1909/1913 4SM BR
     FM191300 24006KT P6SM BKN250
     FM191700 28011KT P6SM SCT035 SCT250
     FM200000 28005KT P6SM SCT050=



000
FTUS43 KDVN 190500
TAFBRL
TAF
KBRL 190520Z 1906/2006 21004KT 6SM BR SCT100 BKN250
      TEMPO 1908/1912 3SM BR
     FM191300 24006KT P6SM BKN250
     FM191700 28011KT P6SM SCT035 SCT250
     FM200000 28005KT P6SM SCT050=



000
FTUS43 KDVN 190500
TAFDBQ
TAF
KDBQ 190520Z 1906/2006 22005KT P6SM VCTS BKN080CB
      TEMPO 1907/1908 5SM -TSRA BR BKN050CB
     FM191000 23004KT 3SM BR BKN150
      TEMPO 1911/1913 1 1/2SM BR SCT003
     FM191400 24006KT P6SM BKN250
     FM191700 28011KT P6SM BKN035
     FM200000 28005KT P6SM SCT050
      AMD NOT SKED=



000
FTUS43 KDVN 190500 AAA
TAFBRL
TAF AMD
KBRL 190506Z 1905/1924 20005KT 4SM BR SCT100 BKN250
     FM191300 24008KT P6SM SCT040 SCT250
     FM191700 27011KT P6SM SCT250=



000
FTUS43 KDVN 190400 AAA
TAFDBQ
TAF AMD
KDBQ 190435Z 1905/1924 21010KT P6SM BKN150
     FM190600 22005KT P6SM VCTS BKN080CB
      TEMPO 1906/1908 5SM -TSRA BR BKN050CB
     FM191000 25006KT 4SM BR SCT050 SCT250
     FM191400 28011KT P6SM SCT250
      AMD NOT SKED=



000
FTUS43 KDVN 182300
TAFBRL
TAF
KBRL 182339Z 1900/1924 20011KT P6SM FEW040
     FM190600 22005KT 5SM BR BKN050 PROB30 1909/1913 3SM -TSRA BR
      BKN030CB
     FM191400 24008KT P6SM SCT040 SCT250
     FM191700 27011KT P6SM SCT250=



000
FTUS43 KDVN 182300
TAFMLI
TAF
KMLI 182339Z 1900/1924 20011KT P6SM FEW040
     FM190600 22005KT 5SM BR BKN050 PROB30 1909/1913 3SM -TSRA BR
      BKN030CB
     FM191400 24008KT P6SM SCT040 SCT250
     FM191700 27011KT P6SM SCT250=



000
FTUS43 KDVN 182300
TAFCID
TAF
KCID 182339Z 1900/1924 21008KT P6SM FEW040
     FM190400 22005KT P6SM VCTS BKN050CB
     FM190900 25006KT 3SM BR SCT050 SCT250
     FM191400 28011KT P6SM SCT250=



000
FTUS43 KDVN 182300
TAFDBQ
TAF
KDBQ 182339Z 1900/1924 21010KT P6SM SCT035 SCT250
     FM190400 22005KT P6SM VCTS BKN050CB
     FM190900 25006KT 4SM BR SCT050 SCT250
     FM191400 28011KT P6SM SCT250=



000
FTUS43 KDVN 181800 AAA
TAFDBQ
TAF AMD
KDBQ 181812Z 1818/1918 22012KT P6SM SCT025
      TEMPO 1900/1904 3SM -TSRA BR BKN025CB
     FM190400 24005KT 6SM BR BKN040
     FM190900 23006KT 4SM BR BKN015
     FM191500 26008KT 6SM HZ BKN040=



000
FTUS43 KDVN 181700
TAFMLI
TAF
KMLI 181720Z 1818/1918 16005KT P6SM SCT025 BKN040 PROB30 1903/1906
      5SM -TSRA BR BKN020CB
     FM190600 22005KT 4SM BR BKN050
      TEMPO 1909/1913 2SM BR
     FM191400 24008KT 6SM BR VCSH BKN040=



000
FTUS43 KDVN 181700
TAFDBQ
TAF
KDBQ 181720Z 1818/1918 20010KT 6SM HZ BKN018
     FM181900 21008KT P6SM SCT020
      TEMPO 1900/1904 3SM -TSRA BR BKN025CB
     FM190400 24005KT 6SM BR BKN040
     FM190900 23006KT 4SM BR BKN015
     FM191500 26008KT 6SM HZ BKN040=



000
FTUS43 KDVN 181700
TAFBRL
TAF
KBRL 181720Z 1818/1918 18006KT P6SM SCT016
     FM190300 20004KT 5SM BR BKN200 PROB30 1909/1913 3SM TSRA BR
      BKN025CB
     FM191300 23005KT 6SM BR VCSH BKN040=



000
FTUS43 KDVN 181700
TAFCID
TAF
KCID 181720Z 1818/1918 20008KT P6SM SCT025
     FM182300 22006KT 6SM HZ SCT040
      TEMPO 1900/1904 4SM -TSRA BR BKN025CB
     FM190400 24005KT 5SM BR BKN050
      TEMPO 1909/1912 3SM BR SCT050=



000
FTUS43 KDVN 181600 AAC
TAFBRL
TAF AMD
KBRL 181607Z 1816/1912 18006KT 6SM HZ BKN011
     FM181800 20008KT P6SM SCT015 BKN100 PROB30 1902/1906 5SM -TSRA
      BR BKN020CB
     FM190600 24005KT 6SM BR SCT150=



000
FTUS43 KDVN 181600 AAC
TAFDBQ
TAF AMD
KDBQ 181605Z 1816/1912 22010KT 5SM BR BKN008
      TEMPO 1816/1818 6SM HZ SCT008
     FM181800 22010KT P6SM SCT020
      TEMPO 1900/1904 3SM -TSRA BR BKN025CB
     FM190400 24005KT 6SM BR SCT150=



000
FTUS43 KDVN 181600 AAC
TAFCID
TAF AMD
KCID 181604Z 1816/1912 18006KT 5SM BR BKN008
      TEMPO 1816/1818 6SM HZ SCT008
     FM181800 20008KT P6SM SCT035
      TEMPO 1900/1904 4SM -TSRA BR BKN025CB
     FM190400 24005KT 6SM BR SCT150=



000
FTUS43 KDVN 181500 AAB
TAFBRL
TAF AMD
KBRL 181506Z 1815/1912 18006KT 5SM BR BKN040
      TEMPO 1815/1817 BKN007
     FM181700 20007KT 6SM HZ BKN050
     FM181800 20008KT P6SM SCT035 PROB30 1900/1906 5SM -TSRA BR
      BKN020CB
     FM190600 24005KT 6SM BR SCT150=



000
FTUS43 KDVN 181500 AAB
TAFMLI
TAF AMD
KMLI 181504Z 1815/1912 18005KT 6SM HZ SCT012 BKN050
     FM181800 20008KT P6SM SCT035 PROB30 1900/1906 5SM -TSRA BR
      BKN020CB
     FM190600 24005KT 6SM BR SCT150=



000
FTUS43 KDVN 181500 AAB
TAFDBQ
TAF AMD
KDBQ 181503Z 1815/1912 23007KT 1SM BR OVC002
      TEMPO 1815/1817 3SM BR OVC004
     FM181700 22008KT 5SM HZ SCT005 SCT035
      TEMPO 1900/1904 3SM -TSRA BR BKN025CB
     FM190400 24005KT 6SM BR SCT150=



000
FTUS43 KDVN 181500 AAB
TAFCID
TAF AMD
KCID 181502Z 1815/1912 21006KT 3SM BR BKN002
      TEMPO 1815/1817 5SM BR
     FM181700 22008KT 5SM HZ SCT005 SCT050
     FM181800 20008KT P6SM SCT035
      TEMPO 1900/1904 4SM -TSRA BR BKN025CB
     FM190400 24005KT 6SM BR SCT150=



000
FTUS43 KDVN 181300 AAA
TAFBRL
TAF AMD
KBRL 181352Z 1814/1912 12003KT 3SM BR BKN040
      TEMPO 1814/1816 5SM BR
     FM181600 18006KT P6SM SCT250
     FM181800 20008KT P6SM SCT035 PROB30 1900/1906 5SM -TSRA BR
      BKN020CB
     FM190600 24005KT 6SM BR SCT150=



000
FTUS43 KDVN 181300 AAA
TAFMLI
TAF AMD
KMLI 181351Z 1814/1912 VRB03KT 4SM BR BKN040
     FM181600 18006KT P6SM SCT050
     FM181800 20008KT P6SM SCT035 PROB30 1900/1906 5SM -TSRA BR
      BKN020CB
     FM190600 24005KT 6SM BR SCT150=



000
FTUS43 KDVN 181300 AAA
TAFDBQ
TAF AMD
KDBQ 181350Z 1814/1912 16004KT 1/4SM FG VV001
      TEMPO 1814/1815 1SM BR OVC002
     FM181500 18006KT 3SM BR FEW005
     FM181700 20008KT P6SM SCT035
      TEMPO 1900/1904 3SM -TSRA BR BKN025CB
     FM190400 24005KT 6SM BR SCT150=



000
FTUS43 KDVN 181300 AAA
TAFCID
TAF AMD
KCID 181349Z 1814/1912 14003KT 1/4SM FG VV002
      TEMPO 1814/1815 1SM BR BKN003
     FM181500 18006KT 2SM BR SCT005
      TEMPO 1815/1816 5SM BR SCT050
     FM181800 20008KT P6SM SCT035
      TEMPO 1900/1904 4SM -TSRA BR BKN025CB
     FM190400 24005KT 6SM BR SCT150=



000
FTUS43 KDVN 181100 RRA
TAFMLI
TAF
KMLI 181142Z 1812/1912 VRB03KT 6SM BR FEW005 BKN035
      TEMPO 1812/1814 2SM BR SCT250
     FM181400 18006KT P6SM FEW005
     FM181800 20008KT P6SM SCT035 PROB30 1900/1906 5SM -TSRA BR
      BKN020CB
     FM190600 24005KT 6SM BR SCT150=



000
FTUS43 KDVN 181100 RRA
TAFCID
TAF
KCID 181142Z 1812/1912 16002KT 1SM BR SCT004
      TEMPO 1812/1814 1/4SM FG VV002
     FM181400 18006KT P6SM FEW005
      TEMPO 1814/1815 1 1/2SM BR BKN003
     FM181800 20008KT P6SM SCT035
      TEMPO 1900/1904 4SM -TSRA BR BKN025CB
     FM190400 24005KT 6SM BR SCT150=



000
FTUS43 KDVN 181100 RRA
TAFDBQ
TAF
KDBQ 181142Z 1812/1912 00000KT P6SM SCT003
      TEMPO 1812/1814 1/4SM FG VV002
     FM181400 18006KT P6SM FEW005
      TEMPO 1814/1815 1 1/2SM BR BKN003
     FM181800 20008KT P6SM SCT035
      TEMPO 1900/1904 3SM -TSRA BR BKN025CB
     FM190400 24005KT 6SM BR SCT150=



000
FTUS43 KDVN 181100 RRA
TAFBRL
TAF
KBRL 181142Z 1812/1912 VRB02KT 2SM BR FEW001 OVC045
      TEMPO 1812/1814 1/2SM FG BKN001
     FM181400 18006KT P6SM SCT250
     FM181800 20008KT P6SM SCT035 PROB30 1900/1906 5SM -TSRA BR
      BKN020CB
     FM190600 24005KT 6SM BR SCT150=



000
FTUS43 KDVN 180700 AAA
TAFMLI
TAF AMD
KMLI 180747Z 1808/1906 VRB03KT 6SM BR SCT015 BKN025
     FM180900 11003KT 4SM BR SCT004 BKN012
      TEMPO 1809/1813 1 1/2SM BR BKN004
     FM181400 16005KT 6SM BR BKN015
     FM181700 20008KT P6SM BKN035 PROB30 1900/1904 5SM -TSRA BR
      BKN020CB=



000
FTUS43 KDVN 180700 AAA
TAFCID
TAF AMD
KCID 180744Z 1808/1906 VRB02KT 1SM BR SCT004
      TEMPO 1808/1812 1/4SM FG VV001
     FM181400 18006KT P6SM BKN018
     FM181800 21009KT P6SM BKN035
      TEMPO 1900/1904 5SM -TSRA BR BKN020CB=



000
FTUS43 KDVN 180600 AAC
TAFBRL
TAF AMD
KBRL 180655Z 1807/1906 VRB02KT 1/2SM FG VV004
      TEMPO 1807/1811 2SM BR SCT005
     FM181400 16005KT 6SM BR SCT004 BKN015
     FM181700 20008KT P6SM BKN035 PROB30 1900/1904 5SM -TSRA BR
      BKN020CB=



000
FTUS43 KDVN 180500 AAB
TAFBRL
TAF AMD
KBRL 180538Z 1806/1906 00000KT 1 1/2SM BR SCT005
      TEMPO 1809/1813 1/4SM FG VV001
     FM181400 16005KT 6SM BR SCT004 BKN015
     FM181700 20008KT P6SM BKN035 PROB30 1900/1904 5SM -TSRA BR
      BKN020CB=



000
FTUS43 KDVN 180500 AAA
TAFBRL
TAF AMD
KBRL 180527Z 1805/1906 00000KT 1 1/2SM BR VV005
      TEMPO 1809/1813 1/4SM FG VV001
     FM181400 16005KT 6SM BR SCT004 BKN015
     FM181700 20008KT P6SM BKN035 PROB30 1900/1904 5SM -TSRA BR
      BKN020CB=



000
FTUS43 KDVN 180500
TAFBRL
TAF
KBRL 180520Z 1806/1906 00000KT 1 1/2SM BR SCT003
      TEMPO 1809/1813 1/4SM FG VV001
     FM181400 16005KT 6SM BR SCT004 BKN015
     FM181700 20008KT P6SM BKN035 PROB30 1900/1904 5SM -TSRA BR
      BKN020CB=



000
FTUS43 KDVN 180500
TAFMLI
TAF
KMLI 180520Z 1806/1906 VRB03KT 6SM BR SCT025 BKN035
     FM180900 11003KT 4SM BR SCT004 SCT025
      TEMPO 1811/1814 1 1/2SM BR BKN004
     FM181400 16005KT 6SM BR BKN015
     FM181700 20008KT P6SM BKN035 PROB30 1900/1904 5SM -TSRA BR
      BKN020CB=



000
FTUS43 KDVN 180500
TAFCID
TAF
KCID 180520Z 1806/1906 16003KT 4SM BR SCT040
     FM181000 18003KT 2SM BR SCT003
      TEMPO 1810/1813 1SM BR BKN003
     FM181400 18006KT P6SM BKN018
     FM181800 21009KT P6SM BKN035
      TEMPO 1900/1904 5SM -TSRA BR BKN020CB=



000
FTUS43 KDVN 180500
TAFDBQ
TAF
KDBQ 180520Z 1806/1906 00000KT P6SM SKC
     FM180900 VRB03KT 4SM BR SCT004
      TEMPO 1811/1814 1 1/2SM BR BKN004
     FM181400 15004KT 5SM BR BKN015
     FM181700 17007KT P6SM BKN025
     FM181900 20009KT P6SM BKN035
      TEMPO 1900/1904 5SM -TSRA BR BKN020CB=



000
FTUS43 KDVN 180400 AAB
TAFBRL
TAF AMD
KBRL 180405Z 1804/1824 00000KT 1SM BR SKC
      TEMPO 1805/1807 1/2SM FG BKN002
     FM180700 VRB03KT 1/4SM FG VV001
     FM181400 15005KT 6SM BR BKN015
     FM181700 19007KT P6SM BKN035=



000
FTUS43 KDVN 180400 AAB
TAFBRL
TAF AMD
KBRL 180405Z 1804/1824 00000KT 1SM BR SKC
      TEMPO 1805/1807 1/2SM FG BKN002
     FM180700 VRB03KT 1/4SM FG VV001
     FM181400 15005KT 6SM BR BKN015
     FM181700 19007KT P6SM BKN035=



000
FTUS43 KDVN 180400 AAA
TAFMLI
TAF AMD
KMLI 180404Z 1804/1824 VRB03KT P6SM SCT025 BKN035
      TEMPO 1804/1806 6SM BR BKN025
     FM180700 11003KT 4SM BR SCT030
     FM180900 10003KT 1SM BR SKC
      TEMPO 1810/1813 1/2SM FG VV003
     FM181400 13004KT 6SM BR BKN015
     FM181700 19008KT P6SM BKN035 PROB30 1820/1824 5SM -TSRA BR
      BKN020CB=



000
FTUS43 KDVN 180300 AAA
TAFBRL
TAF AMD
KBRL 180321Z 1803/1824 00000KT 3SM BR SKC
     FM180500 VRB03KT 1SM BR SCT002
     FM180700 VRB03KT 1/4SM FG VV001
     FM181400 15005KT 6SM BR BKN015
     FM181700 19007KT P6SM BKN035=



000
FTUS43 KDVN 172300 RRA
TAFDBQ
TAF
KDBQ 172346Z 1800/1824 07004KT P6SM SKC
     FM180600 10003KT 4SM BR SCT050
     FM180900 12003KT 1SM BR SCT008
      TEMPO 1809/1813 1/2SM FG VV003
     FM181400 15004KT 5SM BR BKN015
     FM181700 17007KT P6SM BKN025
     FM182000 20010KT P6SM BKN035 PROB30 1820/1824 5SM -TSRA BR
      BKN020CB=



000
FTUS43 KDVN 172300 RRA
TAFBRL
TAF
KBRL 172346Z 1800/1824 10004KT P6SM BKN035
     FM180200 12003KT P6SM SCT040
     FM180600 10003KT 4SM BR SKC
     FM180900 11003KT 2SM BR SKC
      TEMPO 1810/1813 1/2SM FG OVC004
     FM181400 15005KT 6SM BR BKN015
     FM181700 19007KT P6SM BKN035=



000
FTUS43 KDVN 172300 RRA
TAFCID
TAF
KCID 172346Z 1800/1824 16004KT P6SM SKC
     FM180600 15003KT 4SM BR SCT050
      TEMPO 1809/1813 1SM BR SCT003
     FM181400 17006KT P6SM BKN018
     FM181700 21011KT P6SM BKN035 PROB30 1819/1824 5SM -TSRA BR
      BKN020CB=



000
FTUS43 KDVN 172300 RRA
TAFMLI
TAF
KMLI 172346Z 1800/1824 12004KT P6SM SCT050
     FM180700 11003KT 5SM BR SKC
     FM180900 10003KT 1SM BR SKC
      TEMPO 1810/1813 1/2SM FG VV003
     FM181400 13004KT 6SM BR BKN015
     FM181700 19008KT P6SM BKN035 PROB30 1820/1824 5SM -TSRA BR
      BKN020CB=



000
FTUS43 KDVN 172000 AAA
TAFBRL
TAF AMD
KBRL 172036Z 1721/1818 08008KT P6SM SCT023 BKN030
      TEMPO 1721/1722 BKN023
     FM172300 08004KT P6SM BKN035
     FM180600 08003KT 4SM BR SKC
     FM180900 09002KT 2SM BR SKC
      TEMPO 1810/1813 1/2SM FG OVC004
     FM181400 15005KT 6SM BR OVC015=



000
FTUS43 KDVN 172000 AAA
TAFMLI
TAF AMD
KMLI 172034Z 1721/1818 09009KT P6SM BKN035
     FM180600 08003KT 5SM BR SKC
     FM180900 09002KT 1SM BR SKC
      TEMPO 1810/1813 1/2SM FG VV003
     FM181400 12004KT 6SM BR BKN025=



000
FTUS43 KDVN 171700
TAFMLI
TAF
KMLI 171720Z 1718/1818 08009KT P6SM BKN026
     FM172200 07006KT P6SM BKN035
     FM180600 08003KT 5SM BR SKC
     FM180900 09002KT 1SM BR SKC
      TEMPO 1810/1813 1/2SM FG VV003
     FM181400 12004KT 6SM BR BKN025=



000
FTUS43 KDVN 171700
TAFDBQ
TAF
KDBQ 171720Z 1718/1818 06007KT P6SM OVC006
     FM171900 06008KT P6SM BKN017
     FM172300 09003KT P6SM BKN040
     FM180500 10003KT 4SM BR SCT050
     FM180900 10003KT 1SM BR SCT009
      TEMPO 1809/1813 1/2SM FG OVC003
     FM181400 17004KT 5SM BR OVC015=



000
FTUS43 KDVN 171700
TAFCID
TAF
KCID 171720Z 1718/1818 08008KT P6SM BKN022
     FM172000 09006KT P6SM BKN040
     FM180400 10003KT 4SM BR SCT050
     FM180900 10003KT 1SM BR SCT008
      TEMPO 1809/1813 1/2SM FG VV003
     FM181400 14005KT P6SM BKN015=



000
FTUS43 KDVN 171700
TAFBRL
TAF
KBRL 171720Z 1718/1818 02010KT P6SM OVC012
     FM172000 04009KT P6SM BKN018
     FM180600 08003KT 4SM BR SKC
     FM180900 09002KT 2SM BR SKC
      TEMPO 1810/1813 1/2SM FG OVC004
     FM181400 15005KT 6SM BR OVC015=



    US Dept of Commerce
    National Oceanic and Atmospheric Administration
    National Weather Service
    1325 East West Highway
    Silver Spring, MD 20910
    Page Author: NWS Internet Services Team
Disclaimer
Information Quality
Credits
Glossary
Privacy Policy
Freedom of Information Act (FOIA)
About Us
Career Opportunities